sensor_id;sensor_type;location;lat;lon;timestamp;P1;durP1;ratioP1;P2;durP2;ratioP2
70532;SDS011;58088;51.186;17.130;2022-09-12T00:01:24;4.40;;;2.20;;
70532;SDS011;58088;51.186;17.130;2022-09-12T00:03:54;3.50;;;2.00;;
70532;SDS011;58088;51.186;17.130;2022-09-12T00:06:34;4.50;;;2.10;;
70532;SDS011;58088;51.186;17.130;2022-09-12T00:09:08;4.90;;;2.00;;
70532;SDS011;58088;51.186;17.130;2022-09-12T00:11:39;4.40;;;2.40;;
70532;SDS011;58088;51.186;17.130;2022-09-12T00:14:09;4.90;;;2.30;;
70532;SDS011;58088;51.186;17.130;2022-09-12T00:16:38;4.00;;;2.10;;
70532;SDS011;58088;51.186;17.130;2022-09-12T00:19:05;5.10;;;2.30;;
70532;SDS011;58088;51.186;17.130;2022-09-12T00:21:35;6.10;;;2.60;;
70532;SDS011;58088;51.186;17.130;2022-09-12T00:24:03;3.80;;;2.10;;
70532;SDS011;58088;51.186;17.130;2022-09-12T00:26:30;4.80;;;2.30;;
70532;SDS011;58088;51.186;17.130;2022-09-12T00:28:57;4.20;;;2.40;;
70532;SDS011;58088;51.186;17.130;2022-09-12T00:31:25;4.70;;;2.10;;
70532;SDS011;58088;51.186;17.130;2022-09-12T00:33:54;5.00;;;2.50;;
70532;SDS011;58088;51.186;17.130;2022-09-12T00:36:24;3.90;;;2.20;;
70532;SDS011;58088;51.186;17.130;2022-09-12T00:38:51;4.30;;;2.50;;
70532;SDS011;58088;51.186;17.130;2022-09-12T00:41:26;4.50;;;2.10;;
70532;SDS011;58088;51.186;17.130;2022-09-12T00:47:00;4.90;;;2.60;;
70532;SDS011;58088;51.186;17.130;2022-09-12T00:49:32;4.50;;;2.50;;
70532;SDS011;58088;51.186;17.130;2022-09-12T00:52:08;4.40;;;2.20;;
70532;SDS011;58088;51.186;17.130;2022-09-12T00:54:42;4.50;;;2.10;;
70532;SDS011;58088;51.186;17.130;2022-09-12T00:57:13;4.10;;;2.50;;
70532;SDS011;58088;51.186;17.130;2022-09-12T00:59:47;4.80;;;2.50;;
70532;SDS011;58088;51.186;17.130;2022-09-12T01:02:18;5.50;;;2.70;;
70532;SDS011;58088;51.186;17.130;2022-09-12T01:04:44;4.40;;;2.20;;
70532;SDS011;58088;51.186;17.130;2022-09-12T01:07:12;5.50;;;2.70;;
70532;SDS011;58088;51.186;17.130;2022-09-12T01:09:41;4.40;;;2.60;;
70532;SDS011;58088;51.186;17.130;2022-09-12T01:12:10;4.00;;;2.00;;
70532;SDS011;58088;51.186;17.130;2022-09-12T01:14:39;4.90;;;2.40;;
70532;SDS011;58088;51.186;17.130;2022-09-12T01:17:06;4.90;;;2.10;;
70532;SDS011;58088;51.186;17.130;2022-09-12T01:30:54;4.00;;;2.40;;
70532;SDS011;58088;51.186;17.130;2022-09-12T01:33:37;4.60;;;2.30;;
70532;SDS011;58088;51.186;17.130;2022-09-12T01:36:29;4.50;;;2.30;;
70532;SDS011;58088;51.186;17.130;2022-09-12T01:39:02;5.10;;;2.30;;
70532;SDS011;58088;51.186;17.130;2022-09-12T01:41:47;3.90;;;2.20;;
70532;SDS011;58088;51.186;17.130;2022-09-12T01:44:38;5.40;;;2.40;;
70532;SDS011;58088;51.186;17.130;2022-09-12T01:47:39;4.70;;;2.70;;
70532;SDS011;58088;51.186;17.130;2022-09-12T01:50:33;4.10;;;2.50;;
70532;SDS011;58088;51.186;17.130;2022-09-12T01:53:11;4.20;;;2.10;;
70532;SDS011;58088;51.186;17.130;2022-09-12T01:55:54;4.50;;;2.20;;
70532;SDS011;58088;51.186;17.130;2022-09-12T01:58:29;4.00;;;2.10;;
70532;SDS011;58088;51.186;17.130;2022-09-12T02:01:04;4.90;;;2.00;;
70532;SDS011;58088;51.186;17.130;2022-09-12T02:03:45;4.10;;;2.30;;
70532;SDS011;58088;51.186;17.130;2022-09-12T02:06:25;4.50;;;2.40;;
70532;SDS011;58088;51.186;17.130;2022-09-12T02:09:00;4.00;;;2.40;;
70532;SDS011;58088;51.186;17.130;2022-09-12T02:11:40;6.80;;;2.20;;
70532;SDS011;58088;51.186;17.130;2022-09-12T02:14:13;4.80;;;2.20;;
70532;SDS011;58088;51.186;17.130;2022-09-12T02:16:46;4.00;;;2.20;;
70532;SDS011;58088;51.186;17.130;2022-09-12T02:19:17;3.60;;;2.20;;
70532;SDS011;58088;51.186;17.130;2022-09-12T02:21:59;6.10;;;2.20;;
70532;SDS011;58088;51.186;17.130;2022-09-12T02:24:32;4.70;;;2.40;;
70532;SDS011;58088;51.186;17.130;2022-09-12T02:27:10;5.20;;;2.40;;
70532;SDS011;58088;51.186;17.130;2022-09-12T02:29:37;3.90;;;2.20;;
70532;SDS011;58088;51.186;17.130;2022-09-12T02:32:07;4.10;;;1.80;;
70532;SDS011;58088;51.186;17.130;2022-09-12T02:34:58;3.30;;;1.70;;
70532;SDS011;58088;51.186;17.130;2022-09-12T02:37:56;3.80;;;2.20;;
70532;SDS011;58088;51.186;17.130;2022-09-12T02:40:50;4.80;;;2.20;;
70532;SDS011;58088;51.186;17.130;2022-09-12T02:43:16;6.30;;;1.90;;
70532;SDS011;58088;51.186;17.130;2022-09-12T02:45:43;5.50;;;2.30;;
70532;SDS011;58088;51.186;17.130;2022-09-12T02:48:27;3.70;;;2.10;;
70532;SDS011;58088;51.186;17.130;2022-09-12T02:50:58;5.40;;;2.00;;
70532;SDS011;58088;51.186;17.130;2022-09-12T02:53:25;4.40;;;2.40;;
70532;SDS011;58088;51.186;17.130;2022-09-12T02:55:52;4.80;;;2.20;;
70532;SDS011;58088;51.186;17.130;2022-09-12T02:58:23;4.90;;;2.00;;
70532;SDS011;58088;51.186;17.130;2022-09-12T03:19:15;4.10;;;2.00;;
70532;SDS011;58088;51.186;17.130;2022-09-12T03:25:24;3.80;;;1.90;;
70532;SDS011;58088;51.186;17.130;2022-09-12T03:28:02;3.40;;;1.90;;
70532;SDS011;58088;51.186;17.130;2022-09-12T03:30:38;5.00;;;2.40;;
70532;SDS011;58088;51.186;17.130;2022-09-12T03:33:16;5.10;;;2.30;;
70532;SDS011;58088;51.186;17.130;2022-09-12T03:35:44;4.30;;;2.30;;
70532;SDS011;58088;51.186;17.130;2022-09-12T03:38:11;4.90;;;2.40;;
70532;SDS011;58088;51.186;17.130;2022-09-12T03:40:38;3.70;;;1.90;;
70532;SDS011;58088;51.186;17.130;2022-09-12T03:43:05;4.70;;;2.00;;
70532;SDS011;58088;51.186;17.130;2022-09-12T03:45:33;6.00;;;2.60;;
70532;SDS011;58088;51.186;17.130;2022-09-12T03:48:00;4.70;;;2.80;;
70532;SDS011;58088;51.186;17.130;2022-09-12T03:50:27;5.80;;;2.60;;
70532;SDS011;58088;51.186;17.130;2022-09-12T03:52:54;5.50;;;2.50;;
70532;SDS011;58088;51.186;17.130;2022-09-12T03:55:21;3.60;;;2.10;;
70532;SDS011;58088;51.186;17.130;2022-09-12T03:57:47;7.00;;;2.30;;
70532;SDS011;58088;51.186;17.130;2022-09-12T04:00:16;4.50;;;2.20;;
70532;SDS011;58088;51.186;17.130;2022-09-12T04:02:43;5.30;;;2.00;;
70532;SDS011;58088;51.186;17.130;2022-09-12T04:05:09;3.60;;;1.70;;
70532;SDS011;58088;51.186;17.130;2022-09-12T04:07:35;4.60;;;2.30;;
70532;SDS011;58088;51.186;17.130;2022-09-12T04:10:01;4.60;;;2.00;;
70532;SDS011;58088;51.186;17.130;2022-09-12T04:12:28;4.50;;;2.00;;
70532;SDS011;58088;51.186;17.130;2022-09-12T04:14:54;5.40;;;2.10;;
70532;SDS011;58088;51.186;17.130;2022-09-12T04:17:21;4.60;;;2.10;;
70532;SDS011;58088;51.186;17.130;2022-09-12T04:19:47;4.20;;;1.70;;
70532;SDS011;58088;51.186;17.130;2022-09-12T04:22:13;3.20;;;1.90;;
70532;SDS011;58088;51.186;17.130;2022-09-12T04:24:39;6.00;;;2.30;;
70532;SDS011;58088;51.186;17.130;2022-09-12T04:27:05;3.60;;;1.80;;
70532;SDS011;58088;51.186;17.130;2022-09-12T04:29:31;4.10;;;2.00;;
70532;SDS011;58088;51.186;17.130;2022-09-12T04:31:57;4.60;;;2.00;;
70532;SDS011;58088;51.186;17.130;2022-09-12T04:34:24;5.20;;;2.40;;
70532;SDS011;58088;51.186;17.130;2022-09-12T04:36:50;4.10;;;2.10;;
70532;SDS011;58088;51.186;17.130;2022-09-12T04:39:16;3.40;;;2.00;;
70532;SDS011;58088;51.186;17.130;2022-09-12T04:41:42;4.80;;;1.80;;
70532;SDS011;58088;51.186;17.130;2022-09-12T04:44:11;4.00;;;1.80;;
70532;SDS011;58088;51.186;17.130;2022-09-12T04:46:42;4.80;;;1.80;;
70532;SDS011;58088;51.186;17.130;2022-09-12T04:49:11;4.50;;;2.20;;
70532;SDS011;58088;51.186;17.130;2022-09-12T04:51:40;3.70;;;1.90;;
70532;SDS011;58088;51.186;17.130;2022-09-12T04:54:10;5.70;;;2.40;;
70532;SDS011;58088;51.186;17.130;2022-09-12T04:56:42;3.60;;;1.90;;
70532;SDS011;58088;51.186;17.130;2022-09-12T04:59:10;5.70;;;2.20;;
70532;SDS011;58088;51.186;17.130;2022-09-12T05:01:38;7.70;;;2.00;;
70532;SDS011;58088;51.186;17.130;2022-09-12T05:04:04;4.90;;;2.10;;
70532;SDS011;58088;51.186;17.130;2022-09-12T05:06:33;3.20;;;1.80;;
70532;SDS011;58088;51.186;17.130;2022-09-12T05:09:03;6.60;;;2.20;;
70532;SDS011;58088;51.186;17.130;2022-09-12T05:11:36;3.40;;;2.10;;
70532;SDS011;58088;51.186;17.130;2022-09-12T05:14:04;4.40;;;2.30;;
70532;SDS011;58088;51.186;17.130;2022-09-12T05:16:30;3.80;;;2.10;;
70532;SDS011;58088;51.186;17.130;2022-09-12T05:18:57;3.30;;;1.70;;
70532;SDS011;58088;51.186;17.130;2022-09-12T05:21:25;4.20;;;2.00;;
70532;SDS011;58088;51.186;17.130;2022-09-12T05:23:54;5.30;;;1.80;;
70532;SDS011;58088;51.186;17.130;2022-09-12T05:26:22;3.80;;;1.70;;
70532;SDS011;58088;51.186;17.130;2022-09-12T05:28:49;4.10;;;1.80;;
70532;SDS011;58088;51.186;17.130;2022-09-12T05:31:20;3.60;;;1.90;;
70532;SDS011;58088;51.186;17.130;2022-09-12T05:33:49;5.30;;;1.90;;
70532;SDS011;58088;51.186;17.130;2022-09-12T05:36:19;4.00;;;1.60;;
70532;SDS011;58088;51.186;17.130;2022-09-12T05:38:55;4.90;;;1.90;;
70532;SDS011;58088;51.186;17.130;2022-09-12T05:41:26;4.80;;;2.10;;
70532;SDS011;58088;51.186;17.130;2022-09-12T05:43:57;4.00;;;1.80;;
70532;SDS011;58088;51.186;17.130;2022-09-12T05:46:34;5.90;;;2.00;;
70532;SDS011;58088;51.186;17.130;2022-09-12T05:49:07;3.30;;;1.80;;
70532;SDS011;58088;51.186;17.130;2022-09-12T05:51:36;3.10;;;1.90;;
70532;SDS011;58088;51.186;17.130;2022-09-12T05:54:06;4.40;;;2.10;;
70532;SDS011;58088;51.186;17.130;2022-09-12T05:56:40;4.20;;;1.90;;
70532;SDS011;58088;51.186;17.130;2022-09-12T05:59:19;3.60;;;1.80;;
70532;SDS011;58088;51.186;17.130;2022-09-12T06:01:47;4.10;;;1.80;;
70532;SDS011;58088;51.186;17.130;2022-09-12T06:04:13;4.00;;;2.20;;
70532;SDS011;58088;51.186;17.130;2022-09-12T06:06:42;4.40;;;2.20;;
70532;SDS011;58088;51.186;17.130;2022-09-12T06:09:14;4.30;;;2.00;;
70532;SDS011;58088;51.186;17.130;2022-09-12T06:11:42;4.00;;;2.10;;
70532;SDS011;58088;51.186;17.130;2022-09-12T06:14:13;3.20;;;2.10;;
70532;SDS011;58088;51.186;17.130;2022-09-12T06:16:40;4.90;;;2.20;;
70532;SDS011;58088;51.186;17.130;2022-09-12T06:19:15;4.60;;;2.20;;
70532;SDS011;58088;51.186;17.130;2022-09-12T06:21:43;3.80;;;1.90;;
70532;SDS011;58088;51.186;17.130;2022-09-12T06:24:11;4.00;;;2.40;;
70532;SDS011;58088;51.186;17.130;2022-09-12T06:26:38;4.10;;;1.90;;
70532;SDS011;58088;51.186;17.130;2022-09-12T06:29:04;3.70;;;1.80;;
70532;SDS011;58088;51.186;17.130;2022-09-12T06:31:33;3.40;;;1.80;;
70532;SDS011;58088;51.186;17.130;2022-09-12T06:34:04;2.90;;;1.60;;
70532;SDS011;58088;51.186;17.130;2022-09-12T06:36:36;3.10;;;1.90;;
70532;SDS011;58088;51.186;17.130;2022-09-12T06:39:08;4.30;;;1.80;;
70532;SDS011;58088;51.186;17.130;2022-09-12T06:41:37;4.90;;;1.90;;
70532;SDS011;58088;51.186;17.130;2022-09-12T06:44:03;4.50;;;2.00;;
70532;SDS011;58088;51.186;17.130;2022-09-12T06:46:30;2.80;;;1.50;;
70532;SDS011;58088;51.186;17.130;2022-09-12T06:48:57;4.20;;;1.70;;
70532;SDS011;58088;51.186;17.130;2022-09-12T06:51:26;4.20;;;1.60;;
70532;SDS011;58088;51.186;17.130;2022-09-12T06:53:54;5.40;;;1.70;;
70532;SDS011;58088;51.186;17.130;2022-09-12T06:56:24;4.80;;;1.50;;
70532;SDS011;58088;51.186;17.130;2022-09-12T06:58:54;3.20;;;1.40;;
70532;SDS011;58088;51.186;17.130;2022-09-12T07:01:23;4.90;;;1.10;;
70532;SDS011;58088;51.186;17.130;2022-09-12T07:03:54;3.50;;;1.20;;
70532;SDS011;58088;51.186;17.130;2022-09-12T07:06:29;2.50;;;1.20;;
70532;SDS011;58088;51.186;17.130;2022-09-12T07:09:03;3.20;;;1.30;;
70532;SDS011;58088;51.186;17.130;2022-09-12T07:11:33;3.40;;;1.30;;
70532;SDS011;58088;51.186;17.130;2022-09-12T07:14:03;3.40;;;1.20;;
70532;SDS011;58088;51.186;17.130;2022-09-12T07:16:31;4.40;;;1.30;;
70532;SDS011;58088;51.186;17.130;2022-09-12T07:19:00;3.70;;;1.40;;
70532;SDS011;58088;51.186;17.130;2022-09-12T07:21:28;3.40;;;1.30;;
70532;SDS011;58088;51.186;17.130;2022-09-12T07:23:55;2.90;;;1.30;;
70532;SDS011;58088;51.186;17.130;2022-09-12T07:26:24;2.20;;;1.30;;
70532;SDS011;58088;51.186;17.130;2022-09-12T07:28:53;2.30;;;1.30;;
70532;SDS011;58088;51.186;17.130;2022-09-12T07:31:24;3.10;;;1.20;;
70532;SDS011;58088;51.186;17.130;2022-09-12T07:33:53;2.80;;;1.20;;
70532;SDS011;58088;51.186;17.130;2022-09-12T07:36:21;2.30;;;1.30;;
70532;SDS011;58088;51.186;17.130;2022-09-12T07:38:54;2.80;;;1.30;;
70532;SDS011;58088;51.186;17.130;2022-09-12T07:41:26;2.40;;;1.30;;
70532;SDS011;58088;51.186;17.130;2022-09-12T07:43:56;3.90;;;1.30;;
70532;SDS011;58088;51.186;17.130;2022-09-12T07:46:25;2.00;;;0.90;;
70532;SDS011;58088;51.186;17.130;2022-09-12T07:48:53;3.20;;;1.30;;
70532;SDS011;58088;51.186;17.130;2022-09-12T07:51:21;4.30;;;1.40;;
70532;SDS011;58088;51.186;17.130;2022-09-12T07:53:49;2.60;;;1.10;;
70532;SDS011;58088;51.186;17.130;2022-09-12T07:56:17;2.30;;;1.10;;
70532;SDS011;58088;51.186;17.130;2022-09-12T07:58:45;1.90;;;0.90;;
70532;SDS011;58088;51.186;17.130;2022-09-12T08:01:17;2.50;;;1.10;;
70532;SDS011;58088;51.186;17.130;2022-09-12T08:03:52;3.30;;;1.00;;
70532;SDS011;58088;51.186;17.130;2022-09-12T08:06:21;3.40;;;0.90;;
70532;SDS011;58088;51.186;17.130;2022-09-12T08:08:49;2.00;;;1.00;;
70532;SDS011;58088;51.186;17.130;2022-09-12T08:11:18;4.20;;;1.30;;
70532;SDS011;58088;51.186;17.130;2022-09-12T08:13:47;2.20;;;1.20;;
70532;SDS011;58088;51.186;17.130;2022-09-12T08:16:19;3.00;;;1.10;;
70532;SDS011;58088;51.186;17.130;2022-09-12T08:18:47;2.50;;;1.00;;
70532;SDS011;58088;51.186;17.130;2022-09-12T08:21:22;2.40;;;1.00;;
70532;SDS011;58088;51.186;17.130;2022-09-12T08:23:55;2.90;;;1.10;;
70532;SDS011;58088;51.186;17.130;2022-09-12T08:26:27;2.00;;;0.90;;
70532;SDS011;58088;51.186;17.130;2022-09-12T08:28:53;4.10;;;1.30;;
70532;SDS011;58088;51.186;17.130;2022-09-12T08:31:23;3.00;;;1.00;;
70532;SDS011;58088;51.186;17.130;2022-09-12T08:33:54;3.10;;;1.00;;
70532;SDS011;58088;51.186;17.130;2022-09-12T08:36:23;2.60;;;0.90;;
70532;SDS011;58088;51.186;17.130;2022-09-12T08:38:54;3.50;;;1.10;;
70532;SDS011;58088;51.186;17.130;2022-09-12T08:41:29;3.70;;;1.20;;
70532;SDS011;58088;51.186;17.130;2022-09-12T08:49:28;3.80;;;0.90;;
70532;SDS011;58088;51.186;17.130;2022-09-12T08:52:04;4.20;;;1.10;;
70532;SDS011;58088;51.186;17.130;2022-09-12T08:54:38;2.80;;;1.20;;
70532;SDS011;58088;51.186;17.130;2022-09-12T08:57:08;2.20;;;1.00;;
70532;SDS011;58088;51.186;17.130;2022-09-12T08:59:43;3.60;;;1.10;;
70532;SDS011;58088;51.186;17.130;2022-09-12T09:11:16;2.60;;;1.10;;
70532;SDS011;58088;51.186;17.130;2022-09-12T09:14:08;3.20;;;1.10;;
70532;SDS011;58088;51.186;17.130;2022-09-12T09:16:56;2.40;;;1.10;;
70532;SDS011;58088;51.186;17.130;2022-09-12T09:19:31;2.20;;;1.00;;
70532;SDS011;58088;51.186;17.130;2022-09-12T09:22:16;2.70;;;1.00;;
70532;SDS011;58088;51.186;17.130;2022-09-12T09:25:07;3.20;;;1.40;;
70532;SDS011;58088;51.186;17.130;2022-09-12T09:27:49;2.60;;;1.10;;
70532;SDS011;58088;51.186;17.130;2022-09-12T09:30:21;3.90;;;1.20;;
70532;SDS011;58088;51.186;17.130;2022-09-12T09:32:54;2.70;;;1.30;;
70532;SDS011;58088;51.186;17.130;2022-09-12T09:43:29;3.30;;;1.10;;
70532;SDS011;58088;51.186;17.130;2022-09-12T09:45:56;2.70;;;1.00;;
70532;SDS011;58088;51.186;17.130;2022-09-12T09:48:30;2.70;;;1.10;;
70532;SDS011;58088;51.186;17.130;2022-09-12T09:51:02;3.30;;;1.20;;
70532;SDS011;58088;51.186;17.130;2022-09-12T09:53:51;3.20;;;1.10;;
70532;SDS011;58088;51.186;17.130;2022-09-12T09:56:40;3.00;;;1.30;;
70532;SDS011;58088;51.186;17.130;2022-09-12T09:59:27;2.30;;;1.20;;
70532;SDS011;58088;51.186;17.130;2022-09-12T10:04:41;4.30;;;1.40;;
70532;SDS011;58088;51.186;17.130;2022-09-12T10:07:20;2.20;;;0.90;;
70532;SDS011;58088;51.186;17.130;2022-09-12T10:12:39;4.10;;;1.10;;
70532;SDS011;58088;51.186;17.130;2022-09-12T10:15:22;2.10;;;1.10;;
70532;SDS011;58088;51.186;17.130;2022-09-12T10:17:52;3.90;;;1.30;;
70532;SDS011;58088;51.186;17.130;2022-09-12T10:25:51;2.90;;;0.90;;
70532;SDS011;58088;51.186;17.130;2022-09-12T10:28:24;4.90;;;1.10;;
70532;SDS011;58088;51.186;17.130;2022-09-12T10:31:05;2.40;;;0.90;;
70532;SDS011;58088;51.186;17.130;2022-09-12T10:33:45;2.20;;;0.90;;
70532;SDS011;58088;51.186;17.130;2022-09-12T10:36:20;3.60;;;1.00;;
70532;SDS011;58088;51.186;17.130;2022-09-12T10:38:56;1.90;;;1.00;;
70532;SDS011;58088;51.186;17.130;2022-09-12T10:41:25;4.90;;;1.10;;
70532;SDS011;58088;51.186;17.130;2022-09-12T10:44:28;2.40;;;1.10;;
70532;SDS011;58088;51.186;17.130;2022-09-12T10:46:56;2.90;;;0.90;;
70532;SDS011;58088;51.186;17.130;2022-09-12T10:49:29;2.80;;;1.00;;
70532;SDS011;58088;51.186;17.130;2022-09-12T10:52:19;1.70;;;0.90;;
70532;SDS011;58088;51.186;17.130;2022-09-12T10:54:51;3.20;;;1.10;;
70532;SDS011;58088;51.186;17.130;2022-09-12T10:57:36;1.80;;;0.80;;
70532;SDS011;58088;51.186;17.130;2022-09-12T11:00:29;1.90;;;1.00;;
70532;SDS011;58088;51.186;17.130;2022-09-12T11:06:27;1.70;;;0.70;;
70532;SDS011;58088;51.186;17.130;2022-09-12T11:09:46;2.20;;;1.00;;
70532;SDS011;58088;51.186;17.130;2022-09-12T11:12:40;2.10;;;0.90;;
70532;SDS011;58088;51.186;17.130;2022-09-12T11:15:39;2.10;;;0.80;;
70532;SDS011;58088;51.186;17.130;2022-09-12T11:18:52;3.40;;;1.10;;
70532;SDS011;58088;51.186;17.130;2022-09-12T11:30:12;3.70;;;1.30;;
70532;SDS011;58088;51.186;17.130;2022-09-12T11:35:32;1.90;;;1.00;;
70532;SDS011;58088;51.186;17.130;2022-09-12T11:38:07;2.70;;;1.10;;
70532;SDS011;58088;51.186;17.130;2022-09-12T11:41:01;1.80;;;0.90;;
70532;SDS011;58088;51.186;17.130;2022-09-12T11:43:41;3.50;;;1.20;;
70532;SDS011;58088;51.186;17.130;2022-09-12T11:46:29;3.80;;;1.30;;
70532;SDS011;58088;51.186;17.130;2022-09-12T11:51:55;1.40;;;0.70;;
70532;SDS011;58088;51.186;17.130;2022-09-12T11:54:37;2.10;;;0.90;;
70532;SDS011;58088;51.186;17.130;2022-09-12T11:57:16;2.50;;;0.90;;
70532;SDS011;58088;51.186;17.130;2022-09-12T11:59:45;2.10;;;0.90;;
70532;SDS011;58088;51.186;17.130;2022-09-12T12:02:23;3.10;;;0.80;;
70532;SDS011;58088;51.186;17.130;2022-09-12T12:04:58;2.20;;;0.90;;
70532;SDS011;58088;51.186;17.130;2022-09-12T12:07:41;1.50;;;0.90;;
70532;SDS011;58088;51.186;17.130;2022-09-12T12:10:23;1.60;;;0.80;;
70532;SDS011;58088;51.186;17.130;2022-09-12T12:13:44;2.00;;;0.90;;
70532;SDS011;58088;51.186;17.130;2022-09-12T12:16:04;2.40;;;0.80;;
70532;SDS011;58088;51.186;17.130;2022-09-12T12:18:36;2.10;;;0.80;;
70532;SDS011;58088;51.186;17.130;2022-09-12T12:21:30;1.70;;;0.90;;
70532;SDS011;58088;51.186;17.130;2022-09-12T12:39:58;2.60;;;0.90;;
70532;SDS011;58088;51.186;17.130;2022-09-12T12:45:03;2.00;;;0.90;;
70532;SDS011;58088;51.186;17.130;2022-09-12T12:47:52;1.80;;;0.90;;
70532;SDS011;58088;51.186;17.130;2022-09-12T12:50:20;1.30;;;0.70;;
70532;SDS011;58088;51.186;17.130;2022-09-12T12:53:00;1.80;;;0.90;;
70532;SDS011;58088;51.186;17.130;2022-09-12T12:58:27;1.70;;;0.80;;
70532;SDS011;58088;51.186;17.130;2022-09-12T13:01:14;1.90;;;0.80;;
70532;SDS011;58088;51.186;17.130;2022-09-12T13:03:45;1.70;;;1.00;;
70532;SDS011;58088;51.186;17.130;2022-09-12T13:06:33;1.90;;;0.90;;
70532;SDS011;58088;51.186;17.130;2022-09-12T13:11:43;1.30;;;0.80;;
70532;SDS011;58088;51.186;17.130;2022-09-12T13:14:36;2.00;;;0.90;;
70532;SDS011;58088;51.186;17.130;2022-09-12T13:17:22;2.50;;;0.90;;
70532;SDS011;58088;51.186;17.130;2022-09-12T13:20:18;2.10;;;1.10;;
70532;SDS011;58088;51.186;17.130;2022-09-12T13:22:51;1.90;;;0.90;;
70532;SDS011;58088;51.186;17.130;2022-09-12T13:25:29;2.10;;;0.90;;
70532;SDS011;58088;51.186;17.130;2022-09-12T13:30:39;1.80;;;0.90;;
70532;SDS011;58088;51.186;17.130;2022-09-12T13:33:23;4.10;;;1.10;;
70532;SDS011;58088;51.186;17.130;2022-09-12T13:44:45;2.30;;;0.70;;
70532;SDS011;58088;51.186;17.130;2022-09-12T13:47:50;1.80;;;0.70;;
70532;SDS011;58088;51.186;17.130;2022-09-12T13:50:23;1.80;;;0.80;;
70532;SDS011;58088;51.186;17.130;2022-09-12T13:52:54;2.20;;;0.90;;
70532;SDS011;58088;51.186;17.130;2022-09-12T13:58:05;2.50;;;0.80;;
70532;SDS011;58088;51.186;17.130;2022-09-12T14:00:46;2.50;;;0.90;;
70532;SDS011;58088;51.186;17.130;2022-09-12T14:03:27;1.70;;;0.90;;
70532;SDS011;58088;51.186;17.130;2022-09-12T14:06:14;2.00;;;0.80;;
70532;SDS011;58088;51.186;17.130;2022-09-12T14:08:44;1.80;;;0.90;;
70532;SDS011;58088;51.186;17.130;2022-09-12T14:11:23;1.80;;;0.90;;
70532;SDS011;58088;51.186;17.130;2022-09-12T14:13:52;1.60;;;0.90;;
70532;SDS011;58088;51.186;17.130;2022-09-12T14:16:21;1.60;;;0.90;;
70532;SDS011;58088;51.186;17.130;2022-09-12T14:18:49;2.90;;;0.90;;
70532;SDS011;58088;51.186;17.130;2022-09-12T14:23:57;1.80;;;0.70;;
70532;SDS011;58088;51.186;17.130;2022-09-12T14:26:27;1.90;;;0.80;;
70532;SDS011;58088;51.186;17.130;2022-09-12T14:28:57;2.30;;;1.00;;
70532;SDS011;58088;51.186;17.130;2022-09-12T14:31:29;2.90;;;0.90;;
70532;SDS011;58088;51.186;17.130;2022-09-12T14:36:49;2.00;;;0.90;;
70532;SDS011;58088;51.186;17.130;2022-09-12T14:39:30;3.10;;;0.90;;
70532;SDS011;58088;51.186;17.130;2022-09-12T14:42:13;2.40;;;1.10;;
70532;SDS011;58088;51.186;17.130;2022-09-12T14:44:52;4.30;;;1.30;;
70532;SDS011;58088;51.186;17.130;2022-09-12T14:47:40;2.80;;;1.20;;
70532;SDS011;58088;51.186;17.130;2022-09-12T14:50:21;3.40;;;1.10;;
70532;SDS011;58088;51.186;17.130;2022-09-12T14:53:22;3.40;;;1.30;;
70532;SDS011;58088;51.186;17.130;2022-09-12T14:55:54;2.80;;;1.40;;
70532;SDS011;58088;51.186;17.130;2022-09-12T14:58:30;4.50;;;1.30;;
70532;SDS011;58088;51.186;17.130;2022-09-12T15:03:35;4.10;;;1.20;;
70532;SDS011;58088;51.186;17.130;2022-09-12T15:06:04;4.60;;;1.30;;
70532;SDS011;58088;51.186;17.130;2022-09-12T15:08:33;5.10;;;1.50;;
70532;SDS011;58088;51.186;17.130;2022-09-12T15:11:00;3.40;;;1.30;;
70532;SDS011;58088;51.186;17.130;2022-09-12T15:13:27;5.20;;;1.70;;
70532;SDS011;58088;51.186;17.130;2022-09-12T15:15:57;4.00;;;1.50;;
70532;SDS011;58088;51.186;17.130;2022-09-12T15:18:26;3.60;;;1.60;;
70532;SDS011;58088;51.186;17.130;2022-09-12T15:20:55;3.40;;;1.30;;
70532;SDS011;58088;51.186;17.130;2022-09-12T15:25:58;5.00;;;1.60;;
70532;SDS011;58088;51.186;17.130;2022-09-12T15:28:25;4.20;;;1.80;;
70532;SDS011;58088;51.186;17.130;2022-09-12T15:30:54;3.90;;;1.60;;
70532;SDS011;58088;51.186;17.130;2022-09-12T15:33:23;5.20;;;1.60;;
70532;SDS011;58088;51.186;17.130;2022-09-12T15:35:50;3.30;;;1.50;;
70532;SDS011;58088;51.186;17.130;2022-09-12T15:38:18;4.20;;;1.60;;
70532;SDS011;58088;51.186;17.130;2022-09-12T15:40:48;4.00;;;1.70;;
70532;SDS011;58088;51.186;17.130;2022-09-12T15:43:19;5.80;;;1.70;;
70532;SDS011;58088;51.186;17.130;2022-09-12T15:45:47;3.60;;;1.40;;
70532;SDS011;58088;51.186;17.130;2022-09-12T15:48:16;2.10;;;1.20;;
70532;SDS011;58088;51.186;17.130;2022-09-12T15:50:43;3.70;;;1.30;;
70532;SDS011;58088;51.186;17.130;2022-09-12T15:53:13;2.10;;;1.20;;
70532;SDS011;58088;51.186;17.130;2022-09-12T15:55:41;3.00;;;1.30;;
70532;SDS011;58088;51.186;17.130;2022-09-12T15:58:08;2.70;;;1.10;;
70532;SDS011;58088;51.186;17.130;2022-09-12T16:00:35;3.00;;;1.20;;
70532;SDS011;58088;51.186;17.130;2022-09-12T16:03:01;2.40;;;1.20;;
70532;SDS011;58088;51.186;17.130;2022-09-12T16:05:28;2.00;;;1.10;;
70532;SDS011;58088;51.186;17.130;2022-09-12T16:07:54;3.10;;;1.20;;
70532;SDS011;58088;51.186;17.130;2022-09-12T16:10:24;3.10;;;1.00;;
70532;SDS011;58088;51.186;17.130;2022-09-12T16:12:52;2.00;;;1.20;;
70532;SDS011;58088;51.186;17.130;2022-09-12T16:15:21;3.50;;;1.30;;
70532;SDS011;58088;51.186;17.130;2022-09-12T16:17:49;3.10;;;1.30;;
70532;SDS011;58088;51.186;17.130;2022-09-12T16:20:16;2.80;;;1.10;;
70532;SDS011;58088;51.186;17.130;2022-09-12T16:22:44;3.40;;;1.20;;
70532;SDS011;58088;51.186;17.130;2022-09-12T16:25:10;2.70;;;1.00;;
70532;SDS011;58088;51.186;17.130;2022-09-12T16:27:36;2.30;;;1.20;;
70532;SDS011;58088;51.186;17.130;2022-09-12T16:30:04;4.00;;;1.40;;
70532;SDS011;58088;51.186;17.130;2022-09-12T16:32:32;3.30;;;1.10;;
70532;SDS011;58088;51.186;17.130;2022-09-12T16:34:59;2.90;;;1.20;;
70532;SDS011;58088;51.186;17.130;2022-09-12T16:37:25;2.70;;;1.20;;
70532;SDS011;58088;51.186;17.130;2022-09-12T16:39:51;2.40;;;1.10;;
70532;SDS011;58088;51.186;17.130;2022-09-12T16:42:18;2.30;;;1.30;;
70532;SDS011;58088;51.186;17.130;2022-09-12T16:44:45;4.30;;;1.20;;
70532;SDS011;58088;51.186;17.130;2022-09-12T16:47:12;1.90;;;1.20;;
70532;SDS011;58088;51.186;17.130;2022-09-12T16:49:39;3.50;;;1.30;;
70532;SDS011;58088;51.186;17.130;2022-09-12T16:52:05;3.00;;;1.40;;
70532;SDS011;58088;51.186;17.130;2022-09-12T16:54:32;3.30;;;1.30;;
70532;SDS011;58088;51.186;17.130;2022-09-12T16:56:58;2.00;;;1.20;;
70532;SDS011;58088;51.186;17.130;2022-09-12T16:59:25;2.50;;;1.20;;
70532;SDS011;58088;51.186;17.130;2022-09-12T17:01:51;3.90;;;1.40;;
70532;SDS011;58088;51.186;17.130;2022-09-12T17:04:17;1.90;;;1.00;;
70532;SDS011;58088;51.186;17.130;2022-09-12T17:06:43;2.00;;;1.20;;
70532;SDS011;58088;51.186;17.130;2022-09-12T17:09:10;5.90;;;1.50;;
70532;SDS011;58088;51.186;17.130;2022-09-12T17:11:38;3.10;;;1.30;;
70532;SDS011;58088;51.186;17.130;2022-09-12T17:14:05;5.10;;;1.60;;
70532;SDS011;58088;51.186;17.130;2022-09-12T17:16:35;3.60;;;1.50;;
70532;SDS011;58088;51.186;17.130;2022-09-12T17:19:03;3.20;;;1.20;;
70532;SDS011;58088;51.186;17.130;2022-09-12T17:21:30;5.10;;;1.40;;
70532;SDS011;58088;51.186;17.130;2022-09-12T17:23:57;4.00;;;1.40;;